Ramon Caceres

Olheiro - Cerro Porteno
6 Ago 2028
Domingo
Processo

Personalidade

Adaptabilidade (8) Ambição (11) Controvérsia (15) Lealdade (11) Pressão (2) Profissionalismo (5) Espírito Esportivo (14) Temperamento (14)

Perfil

Estilo de Treinamento Democrático
Licença Nacional A
Determinação 6
Gestão de Pessoas 9
Motivação 13
Disciplina 10
Satisfação no Trabalho
100%
Fadiga
0%
Função Olheiro
Salário 22.4K p/s
Contrato 14.03.2030

Desempenho

Comportamento Bom
Eficácia do Treinamento
45%
Desenvolvimento do Jogador
25%
Prevenção de Lesões
55%
Implementação Tática
55%

Eventos Recentes

Avaliou um jogador agora
Participou de uma reunião de recrutamento agora
Recomendou um alvo de transferência agora
Recomendou um alvo de transferência agora
Recomendou um alvo de transferência agora
Recomendou um alvo de transferência agora
Recomendou um alvo de transferência agora
Avaliou um jogador agora

Monitorando agora

274
Jogador Clube Status Habilidade Confiança Observado Última observação Último voto
Matteo Ruggeri Middlesbrough Ativo 164 / 156 40% 4 04.08.2028 -
Timothy Castagne Stoke City Ativo 141 / 135 40% 1 04.08.2028 -
Yerson Mosquera Wolverhampton Ativo 159 / 136 40% 1 03.08.2028 -
Archie Gray Southampton Ativo 159 / 152 40% 1 03.08.2028 -
Quinten Timber Crystal Palace Ativo 161 / 167 40% 5 02.08.2028 -
Joe Rodon Blackburn Rovers Ativo 145 / 138 40% 1 02.08.2028 -
Andrey Santos Bolton Wanderers Ativo 139 / 138 40% 2 31.07.2028 -
Lamare Bogarde Reading Ativo 141 / 140 40% 1 31.07.2028 -
Enrique Clemente Las Palmas Ativo 126 / 139 40% 2 30.07.2028 -
Ben Chilwell Sheffield United Ativo 135 / 162 40% 3 30.07.2028 -
Sander Berge Derby County Ativo 162 / 140 40% 1 29.07.2028 -
Calvin Ramsay Bristol Rovers Ativo 140 / 134 40% 1 29.07.2028 -
Bafodé Diakité Plymouth Argyle Ativo 152 / 148 40% 2 28.07.2028 -
Yasin Ayari Middlesbrough Ativo 154 / 155 40% 1 28.07.2028 -
Ousmane Diomande Nottingham Forest Ativo 148 / 166 40% 2 26.07.2028 -
Mads Hermansen West Ham United Ativo 135 / 139 40% 15 24.07.2028 -
Carl Rushworth Aston Villa Ativo 162 / 150 40% 7 24.07.2028 -
Matías Daniele Belgrano Ativo 135 / 123 40% 1 23.07.2028 -
Robin Roefs Sunderland Ativo 156 / 139 40% 8 22.07.2028 -
Elia Caprile Cagliari Ativo 151 / 147 40% 9 22.07.2028 -
Tino Livramento Newcastle United Ativo 164 / 160 40% 1 22.07.2028 -
Aihen Muñoz Andorra Ativo 141 / 152 40% 1 22.07.2028 -
Radek Vítek Middlesbrough Ativo 153 / 155 40% 15 21.07.2028 -
Lazar Carević Famalicao Ativo 150 / 134 40% 5 21.07.2028 -
Juanlu Bournemouth Ativo 144 / 167 40% 1 20.07.2028 -
André Wolverhampton Ativo 161 / 144 40% 5 19.07.2028 -
Neco Williams Wrexham Ativo 165 / 154 40% 2 19.07.2028 -
Jonathan Klinsmann Cesena Ativo 146 / 124 40% 6 16.07.2028 -
Alejandro Rodríguez Melgar Ativo 134 / 130 40% 8 15.07.2028 -
Vanja Milinković-Savić Atalanta Ativo 141 / 166 40% 7 14.07.2028 -
Josh Keeley Luton Town Ativo 153 / 154 40% 9 14.07.2028 -
Lukas Jensen Millwall Ativo 114 / 120 40% 2 13.07.2028 -
Fran Vieites Walsall Ativo 124 / 118 40% 11 12.07.2028 -
Christos Mandas Lazio Ativo 152 / 149 40% 12 10.07.2028 -
Carlos Marín Albacete Ativo 141 / 132 40% 2 10.07.2028 -
Anthony Patterson Wrexham Ativo 155 / 127 40% 19 09.07.2028 -
Amir Saipi Mallorca Ativo 126 / 128 40% 1 07.07.2028 -
Guillaume Restes Toulouse FC Ativo 144 / 156 40% 7 06.07.2028 -
Riccardo Gagno Vicenza Ativo 121 / 119 40% 3 05.07.2028 -
Michele Cerofolini Empoli Ativo 140 / 140 40% 1 05.07.2028 -
James Trafford Leeds United Ativo 141 / 166 40% 9 01.07.2028 -
Leandro Brey Boca Juniors Ativo 138 / 142 40% 2 01.07.2028 -
Dean Henderson Crystal Palace Ativo 159 / 158 40% 17 29.06.2028 -
Jonathan Fischer FC Metz Ativo 142 / 151 40% 1 28.06.2028 -
Santiago Godoy 12 de Octubre Ativo 98 / 98 58% 1 26.06.2028 Aprovar
Đorđe Petrović Olympique de Marseille Ativo 144 / 163 40% 5 22.06.2028 -
Murphy Cooper Plymouth Argyle Ativo 120 / 134 40% 4 20.06.2028 -
Alex Meret Napoli Ativo 164 / 155 40% 10 18.06.2028 -
Mile Svilar AS Roma Ativo 177 / 178 40% 6 14.06.2028 -
Dominik Greif Olympique Lyonnais Ativo 136 / 135 40% 1 14.06.2028 -
Nathan Trott Cardiff City Ativo 118 / 139 40% 5 13.06.2028 -
Oliver Dovin Coventry City Ativo 138 / 152 40% 9 13.06.2028 -
Ignacio de Arruabarrena Arouca Ativo 142 / 131 40% 5 12.06.2028 -
Aaron Ramsdale Southampton Ativo 166 / 143 40% 8 10.06.2028 -
Balázs Tóth Blackburn Rovers Ativo 139 / 140 40% 5 09.06.2028 -
Yehvann Diouf OGC Nice Ativo 150 / 148 40% 2 06.06.2028 -
Derlis Gonzalez Olimpia Ativo 112 / 118 58% 1 06.06.2028 Aprovar
Diego Duarte Nacional Ativo 103 / 109 58% 1 02.06.2028 Aprovar
Babis Kostoulas Oxford United Ativo 146 / 160 40% 1 01.06.2028 -
Max Bird Birmingham Ativo 126 / 138 40% 3 31.05.2028 -
Sol Brynn Bradford City Ativo 124 / 130 40% 5 31.05.2028 -
William Osula Wrexham Ativo 137 / 141 40% 1 31.05.2028 -
James Garner Everton Ativo 145 / 148 40% 6 30.05.2028 -
Manuel Ugarte Leicester City Ativo 164 / 142 40% 1 25.05.2028 -
Sven Botman Newcastle United Ativo 152 / 154 40% 1 25.05.2028 -
Exequiel Palacios Lazio Ativo 175 / 167 40% 4 23.05.2028 -
Melvin Bard OGC Nice Ativo 147 / 160 40% 1 23.05.2028 -
Santiago Silva Lech Ativo 126 / 138 40% 5 22.05.2028 -
Cezary Miszta Rio Ave Ativo 142 / 139 40% 5 22.05.2028 -
Maduka Okoye Udinese Ativo 133 / 147 40% 4 20.05.2028 -
Will Mannion Charlton Athletic Ativo 129 / 112 40% 3 17.05.2028 -
Egil Selvik Slavia Prague Ativo 130 / 124 40% 3 04.05.2028 -
Amadou Onana Aston Villa Ativo 162 / 166 40% 2 30.04.2028 -
Alexei Rojas Fedorushchenko Barrow AFC Ativo 119 / 115 40% 3 27.04.2028 -
Raúl Rangel Braga Ativo 131 / 136 40% 7 24.04.2028 -
Lukáš Horníček Burnley Ativo 167 / 159 40% 4 22.04.2028 -
Francisco Meixedo Feirense Ativo 135 / 110 40% 2 17.04.2028 -
Lucas Arcanjo Vitória Ativo 137 / 136 40% 11 14.04.2028 -
Federico Pereira Toulouse FC Ativo 157 / 137 40% 1 10.04.2028 -
Quilindschy Hartman Burnley Ativo 152 / 154 40% 4 04.04.2028 -
Antonio Gomis Vizela Ativo 138 / 132 40% 1 04.04.2028 -
Adriel Torreense Ativo 113 / 128 40% 1 04.04.2028 -
Santiago Salcedo Cruzeiro Ativo 158 / 162 40% 5 01.04.2028 -
Carlos Miguel Palmeiras Ativo 143 / 129 40% 6 30.03.2028 -
Obed Nkambadio Paris FC Ativo 134 / 144 40% 1 27.03.2028 -
Ben Nelson Leicester City Ativo 144 / 134 40% 1 26.03.2028 -
Nuno Tavares Lazio Ativo 139 / 163 40% 1 26.03.2028 -
Patrick Sequeira Casa Pia Ativo 122 / 134 40% 1 21.03.2028 -
Cheick Doucouré Crystal Palace Ativo 144 / 159 40% 1 20.03.2028 -
Alex Scott Bournemouth Ativo 170 / 158 40% 2 18.03.2028 -
Jordan Beyer Burnley Ativo 137 / 132 40% 1 15.03.2028 -
Matt Freese Shakhtar Ativo 131 / 140 40% 6 13.03.2028 -
Óscar Mingueza Crystal Palace Ativo 148 / 140 40% 5 11.03.2028 -
Nordi Mukiele Sunderland Ativo 159 / 134 40% 4 11.03.2028 -
Vladan Kovačević Norwich City Ativo 116 / 136 40% 3 11.03.2028 -
Evgeny Latyshonok Nizhniy Novgorod Ativo 125 / 138 40% 3 04.03.2028 -
Filip Marschall Stevenage Ativo 114 / 125 40% 4 01.03.2028 -
Maxim Borisko CSKA Moscow Ativo 139 / 118 40% 2 29.02.2028 -
Caoimhin Kelleher Brentford Ativo 173 / 155 40% 14 28.02.2028 -
Renan Lodi Atlético Mineiro Ativo 149 / 136 40% 3 27.02.2028 -
Angeliño AS Roma Ativo 150 / 148 40% 1 20.02.2028 -
Adam Wharton Crystal Palace Ativo 168 / 149 40% 2 18.02.2028 -
James Pantemis Portland Timbers Ativo 116 / 125 40% 1 17.02.2028 -
Patrick Schulte Columbus Crew Ativo 120 / 118 40% 6 15.02.2028 -
Leonardo Lelo Braga Ativo 138 / 143 40% 1 14.02.2028 -
Mats Wieffer Brighton Ativo 166 / 145 40% 1 14.02.2028 -
Fabrizio Correa Juventud Ativo 122 / 126 40% 5 09.02.2028 -
Manu Koné AS Roma Ativo 173 / 160 40% 1 09.02.2028 -
Angel Gomes Olympique de Marseille Ativo 136 / 158 40% 1 09.02.2028 -
Hugo Souza Corinthians Ativo 149 / 137 40% 2 06.02.2028 -
Sławomir Abramowicz Jagiellonia Ativo 126 / 134 40% 3 30.01.2028 -
Ezequiel Centurión River Plate Ativo 125 / 129 40% 11 30.01.2028 -
Ryan Sessegnon Fulham Ativo 149 / 150 40% 3 29.01.2028 -
Jarrad Branthwaite Everton Ativo 160 / 161 40% 2 23.01.2028 -
Rico Henry River Plate Ativo 148 / 133 40% 2 23.01.2028 -
Sebastián Meza Bragantino Ativo 137 / 125 40% 1 15.01.2028 -
Joe Whitworth Wigan Athletic Ativo 113 / 108 40% 1 12.01.2028 -
Novak Mićović LA Galaxy Ativo 120 / 125 40% 3 11.01.2028 -
Oliver Petersen Odd Ativo 106 / 106 40% 2 10.01.2028 -
Gabriel Batista Botafogo Ativo 134 / 138 40% 5 07.01.2028 -
Marcos Antonio Sport Recife Ativo 133 / 148 40% 1 04.01.2028 -
Dayne St. Clair Inter Miami CF Ativo 131 / 129 40% 6 02.01.2028 -
Tomás Ahumada Audax Italiano Ativo 120 / 118 40% 1 31.12.2027 -
Gabriel Brazão Santos Ativo 133 / 135 40% 2 29.12.2027 -
Matías Espinoza Libertad Perdido 131 / 118 58% 1 27.12.2027 Aprovar
Martin Jedlička Banik Ostrava Ativo 136 / 135 40% 2 26.12.2027 -
Iván Arboleda Al Ahly Ativo 112 / 129 40% 4 20.12.2027 -
Cristopher Varela Deportivo La Guaira Ativo 118 / 123 40% 1 20.12.2027 -
Diego Enríquez Sporting Cristal Ativo 143 / 148 40% 9 18.12.2027 -
Nicolás Freire Libertad Ativo 109 / 110 58% 1 13.12.2027 Aprovar
Leopold Wahlstedt Rosenborg Ativo 120 / 111 40% 2 08.12.2027 -
Angus Gunn San Jose Earthquakes Ativo 125 / 125 40% 4 05.12.2027 -
Renato Solís Sporting Cristal Ativo 124 / 119 40% 3 03.12.2027 -
Dinko Horkaš Malmo FF Ativo 125 / 140 40% 2 02.12.2027 -
Facundo Colidio Vasco da Gama Ativo 137 / 132 40% 1 30.11.2027 -
Victor Lind Hammarby Ativo 130 / 109 40% 1 30.11.2027 -
Luis Ingolotti Atlético Tucumán Ativo 123 / 137 40% 3 25.11.2027 -
Facundo Mura Inter Miami CF Ativo 133 / 121 40% 4 21.11.2027 -
Matheus Henrique Cruzeiro Ativo 144 / 125 40% 1 21.11.2027 -
Victor Palacios Sporting CP Ativo 143 / 137 40% 1 16.11.2027 -
Juan Sierra La Equidad Ativo 125 / 132 40% 1 14.11.2027 -
Drake Callender Minnesota United FC Ativo 117 / 129 40% 3 13.11.2027 -
Bruno Gomes Internacional Ativo 129 / 131 40% 1 11.11.2027 -
Conrad Wallem Djurgarden Ativo 132 / 113 40% 2 09.11.2027 -
Lucas Sanabria LA Galaxy Ativo 138 / 138 40% 2 09.11.2027 -
Alan Rodríguez Internacional Ativo 127 / 130 40% 2 08.11.2027 -
Agustín Giay Palmeiras Ativo 141 / 125 40% 1 07.11.2027 -
Ángelo Preciado Atlético Mineiro Ativo 137 / 140 40% 2 03.11.2027 -
Alexandro Bernabei Internacional Ativo 135 / 133 40% 1 03.11.2027 -
Aslak Fonn Witry Rosenborg Ativo 118 / 134 40% 1 30.10.2027 -
Marco Pellegrino Boca Juniors Ativo 125 / 132 40% 1 24.10.2027 -
Felipe Peña Biafore Lanús Ativo 134 / 121 40% 1 24.10.2027 -
Enzo Díaz Sport Recife Ativo 126 / 141 40% 1 21.10.2027 -
Lautaro Di Lollo Boca Juniors Ativo 132 / 139 40% 1 21.10.2027 -
Paulo Henrique Vasco da Gama Ativo 123 / 128 40% 1 19.10.2027 -
David Brekalo Orlando City Ativo 125 / 122 40% 1 18.10.2027 -
Ignacio Vázquez Platense Ativo 122 / 122 40% 1 18.10.2027 -
Lautaro Morales Lanús Ativo 129 / 126 40% 3 14.10.2027 -
Emanuel Mammana Vélez Ativo 124 / 131 40% 1 13.10.2027 -
Rodrigo Morínigo Debrecen Ativo 124 / 119 40% 5 07.10.2027 -
Roman Celentano FC Cincinnati Ativo 131 / 134 40% 5 05.10.2027 -
Nicolás Romero Minnesota United FC Ativo 126 / 131 40% 3 01.10.2027 -
Israel Reyes Toulouse FC Ativo 137 / 157 40% 1 25.09.2027 -
Ignacio Chicco Aldosivi Ativo 129 / 121 40% 1 25.09.2027 -
Gonzalo Montiel River Plate Ativo 124 / 126 40% 2 22.09.2027 -
Miles Robinson FC Cincinnati Ativo 126 / 143 40% 2 22.09.2027 -
Gustavo Marques Bragantino Ativo 121 / 124 40% 1 19.09.2027 -
Ander Astralaga Newcastle United Ativo 146 / 149 40% 1 19.09.2027 -
Mauro Silveira Junior Ativo 115 / 113 40% 3 11.09.2027 -
Ľubomír Belko Viking Ativo 117 / 123 40% 1 09.09.2027 -
Giorgi Mamardashvili Liverpool Ativo 150 / 162 40% 2 08.09.2027 -
César Inga Universitario Ativo 126 / 121 40% 1 06.09.2027 -
Marc Roca Betis Ativo 137 / 148 40% 1 06.09.2027 -
Jakub Stolarczyk Middlesbrough Ativo 137 / 143 40% 1 06.09.2027 -
Lucas Martínez Quarta Central Córdoba SdE Ativo 137 / 133 40% 1 04.09.2027 -
Caio Alexandre Bahia Ativo 139 / 139 40% 1 03.09.2027 -
Niklas Dorsch Toronto FC Ativo 131 / 124 40% 1 02.09.2027 -
Mohamed Camara Maccabi Tel Aviv Ativo 141 / 142 40% 1 23.08.2027 -
Simone Scuffet Pisa Ativo 144 / 146 40% 4 16.08.2027 -
Lucas Da Cunha Como Ativo 147 / 152 40% 1 16.08.2027 -
Rolando Mandragora Torino Ativo 146 / 148 40% 1 16.08.2027 -
Abduvohid Ne'matov Nasaf Ativo 131 / 105 40% 1 10.08.2027 -
Max Johnston Derby County Ativo 144 / 140 40% 2 02.08.2027 -
Sipho Chaine Orlando Pirates Ativo 107 / 135 40% 1 02.08.2027 -
Ronnie Edwards Queens Park Rangers Ativo 120 / 146 40% 1 02.08.2027 -
Adrian Šemper Al-Fateh Ativo 117 / 135 40% 5 30.07.2027 -
Christian Walton Ipswich Town Ativo 137 / 116 40% 1 24.07.2027 -
Ivor Pandur Hull City Ativo 125 / 129 40% 5 21.07.2027 -
Aynsley Pears Blackburn Rovers Ativo 137 / 134 40% 1 21.07.2027 -
Diego Romero Universitario Ativo 117 / 117 40% 4 16.07.2027 -
Azor Matusiwa Ipswich Town Ativo 131 / 153 40% 3 07.07.2027 -
Pedro Porro Tottenham Ativo 161 / 149 40% 2 27.06.2027 -
Moussa Baradji Blackburn Rovers Ativo 128 / 107 40% 1 25.06.2027 -
Milan van Ewijk Coventry City Ativo 142 / 128 40% 3 24.06.2027 -
Jacques Ekomié Wrexham Ativo 143 / 136 40% 1 24.06.2027 -
Luke McNally Bristol City Ativo 139 / 128 40% 2 23.06.2027 -
Darlin Yongwa Norwich City Ativo 140 / 127 40% 1 14.06.2027 -
Derry Murkin Derby County Ativo 120 / 120 40% 1 14.06.2027 -
Omri Glazer Maccabi Haifa Ativo 112 / 130 40% 3 13.06.2027 -
Stanislav Agkatsev Brentford Ativo 132 / 133 66% 1 01.06.2027 Aprovar
Pedro de la Vega Columbus Crew Ativo 133 / 134 66% 1 01.06.2027 Aprovar
José Devecchi San Lorenzo Ativo 120 / 128 40% 1 29.05.2027 -
Matt Clarke Derby County Ativo 136 / 127 40% 1 28.05.2027 -
Callum Brittain Middlesbrough Ativo 122 / 113 40% 3 21.05.2027 -
Welington Southampton Ativo 119 / 119 40% 3 12.05.2027 -
Kyle Walker-Peters West Ham United Ativo 127 / 133 40% 1 12.05.2027 -
Alexander Nübel Besiktas Ativo 158 / 142 40% 1 03.05.2027 -
Aidan Morris Middlesbrough Ativo 118 / 131 40% 1 01.05.2027 -
Jacob Greaves Ipswich Town Ativo 141 / 130 40% 3 28.04.2027 -
Chris Mepham West Bromwich Albion Ativo 144 / 118 40% 2 24.04.2027 -
Shea Charles Southampton Ativo 122 / 125 40% 1 24.04.2027 -
Alex Palmer Ipswich Town Ativo 134 / 121 40% 3 19.04.2027 -
Ricardo Velho Aris Thessaloniki Ativo 124 / 114 40% 1 12.04.2027 -
Maílson Al-Taawoun Ativo 114 / 130 40% 1 06.04.2027 -
Cristian Rivero Real Sociedad Ativo 114 / 111 40% 1 02.04.2027 -
Grégoire Coudert Burnley Ativo 118 / 134 40% 1 28.03.2027 -
Adam Randell Bristol City Ativo 132 / 126 40% 3 26.03.2027 -
Alessio Romagnoli Lazio Ativo 138 / 148 40% 1 24.03.2027 -
Matthew Targett Hull City Ativo 119 / 123 40% 1 22.03.2027 -
Kenny Tete Fulham Ativo 157 / 132 40% 1 22.03.2027 -
Oufa Shobeir MC Alger Ativo 119 / 121 40% 1 20.03.2027 -
Jake O'Brien Everton Ativo 139 / 136 40% 1 19.03.2027 -
Alfie Doughty Millwall Ativo 139 / 129 40% 1 19.03.2027 -
Uğurcan Çakır Galatasaray Ativo 135 / 139 40% 1 19.03.2027 -
Harry Clarke Preston Ativo 124 / 111 40% 1 13.03.2027 -
Oliver Skipp Leicester City Ativo 144 / 127 40% 2 10.03.2027 -
Tomáš Souček West Ham United Ativo 145 / 141 40% 1 08.03.2027 -
Raoul Bellanova Atalanta Ativo 154 / 165 40% 1 18.02.2027 -
Toti Wolverhampton Ativo 123 / 134 40% 2 11.02.2027 -
Ferland Mendy Real Madrid Ativo 133 / 126 40% 1 05.02.2027 -
Morgan Billiat SuperSport United Ativo 116 / 135 40% 1 04.02.2027 -
João Cancelo Spartak Moscow Ativo 141 / 142 40% 1 23.01.2027 -
Sondre Tronstad Blackburn Rovers Ativo 113 / 135 40% 1 22.01.2027 -
Habib Diarra Sunderland Ativo 148 / 149 40% 1 17.01.2027 -
Manu Morlanes Mallorca Ativo 144 / 125 40% 4 30.11.2026 -
José Florentín Independiente Rivadavia Ativo 125 / 122 40% 1 30.11.2026 -
Florentino Luís Ipswich Town Ativo 124 / 125 40% 1 27.11.2026 -
Alex Vigo Independiente Rivadavia Ativo 126 / 122 40% 1 25.11.2026 -
Alex Luna Instituto Ativo 133 / 133 40% 1 23.11.2026 -
Matt O'Riley Brighton Ativo 156 / 142 40% 1 23.11.2026 -
Fiete Arp OB Ativo 126 / 126 40% 1 20.11.2026 -
Japhet Tanganga Sheffield United Ativo 128 / 116 40% 1 18.11.2026 -
Cheick Oumar Souaré Viktoria Plzen Ativo 123 / 127 40% 1 15.11.2026 -
Jens Petter Hauge Bodo/Glimt Ativo 137 / 149 40% 1 13.11.2026 -
Diogo Dalot Manchester United Ativo 138 / 157 40% 1 13.11.2026 -
Di'Shon Bernard Sheffield Wednesday Ativo 117 / 122 40% 1 13.11.2026 -
Gustavo Hamer Sheffield United Ativo 135 / 118 40% 1 09.11.2026 -
Thierry Rendall Correia Venezia Ativo 124 / 150 40% 1 08.11.2026 -
Bongani Zungu Ajax Cape Town Ativo 127 / 128 40% 1 05.11.2026 -
Daniel Karlsbakk Sarpsborg 08 Ativo 125 / 116 40% 1 01.11.2026 -
Iván Angulo Orlando City Ativo 126 / 127 40% 2 28.10.2026 -
Lasse Berg Johnsen Sporting Kansas City Ativo 124 / 122 40% 1 20.10.2026 -
Marcelo Allende Mamelodi Sundowns Ativo 146 / 144 40% 2 18.10.2026 -
Rubens Dinamo Moscow Ativo 140 / 127 40% 1 18.10.2026 -
David Da Costa Portland Timbers Ativo 128 / 125 40% 1 15.10.2026 -
Kelvin Yeboah Minnesota United FC Ativo 124 / 124 40% 1 15.10.2026 Mais informações
Facundo Miño Deportivo Riestra Ativo 116 / 112 40% 1 13.10.2026 -
Allan Saint-Maximin Charlotte Football Club Ativo 140 / 133 40% 2 11.10.2026 -
Elias Achouri San Diego Football Club Ativo 129 / 134 40% 1 11.10.2026 -
Luca De La Torre Charlotte Football Club Ativo 132 / 139 40% 2 10.10.2026 -
Martín Ojeda Orlando City Ativo 130 / 123 40% 1 08.10.2026 -
Lukáš Červ Viktoria Plzen Ativo 133 / 134 40% 1 07.10.2026 -
Thomas Carrique Andorra Ativo 103 / 111 40% 1 07.10.2026 -
Jesus Ferreira Seattle Sounders Ativo 129 / 128 40% 1 07.10.2026 -
Telasco Segovia Inter Miami CF Ativo 121 / 127 40% 1 28.09.2026 -
Matheus Savio Urawa Reds Ativo 116 / 129 40% 1 23.09.2026 -
Herman Johansson FC Dallas Ativo 120 / 122 40% 1 22.09.2026 -
Joaquín Pereyra Minnesota United FC Ativo 124 / 126 40% 1 20.09.2026 -
Antony Portland Timbers Ativo 121 / 120 40% 1 16.09.2026 -
Morgan Guilavogui Real Salt Lake Ativo 117 / 116 40% 1 15.09.2026 -
Petar Stanić Ludogorets Ativo 145 / 121 40% 1 08.09.2026 -
Juan Manuel Sanabria Real Salt Lake Ativo 120 / 115 40% 1 07.09.2026 -
Lucas Souto Defensa y Justicia Ativo 115 / 126 40% 1 07.09.2026 -
Sergio Gómez Real Sociedad Ativo 123 / 155 40% 1 01.08.2026 -